Terminal Aerodrome Forecast
Issued by NWS

Home | Current Version | Previous Version | Text Only | Print | Product List | Glossary On
Versions: 1 2 3 4 5 6 7 8 9 10 11 12 13 14 15 16 17 18 19 20 21 22 23 24 25 26 27 28 29 30
000
FTUS45 KLKN 041120
TAFEKO
TAF
KEKO 041120Z 0412/0512 06004KT P6SM SCT200
     FM041900 22008KT P6SM VCTS SCT100CB
     FM042200 22010G25KT P6SM -TSRA BKN100CB OVC150
     FM050400 23010KT P6SM VCTS SCT060CB OVC150=

USA.gov is the U.S. government's official web portal to all federal, state and local government web resources and services.